Terminal Aerodrome Forecast
Issued by NWS

Home | Current Version | Previous Version | Text Only | Print | Product List | Glossary On
Versions: 1 2 3 4 5 6 7 8 9 10 11 12 13 14 15 16 17 18 19 20
000
FTUS43 KLSX 140400 AAA
TAFSUS
TAF AMD
KSUS 140422Z 1404/1424 23014G26KT P6SM OVC035
      TEMPO 1404/1407 4SM -SHRA
     FM140700 27016G26KT P6SM OVC015
     FM141000 30015G25KT P6SM OVC010
     FM141600 34016G26KT P6SM OVC015
      TEMPO 1419/1423 5SM -RA=

USA.gov is the U.S. government's official web portal to all federal, state and local government web resources and services.